createdAt,value
2019-03-12T00:04:50.588Z,21.90
2019-03-12T00:09:56.829Z,21.70
2019-03-12T00:15:02.870Z,22.43
2019-03-12T00:20:09.184Z,26.93
2019-03-12T00:25:15.331Z,25.80
2019-03-12T00:30:21.419Z,27.40
2019-03-12T00:35:27.528Z,25.97
2019-03-12T00:40:33.633Z,23.57
2019-03-12T00:45:39.875Z,23.03
2019-03-12T00:50:45.923Z,20.83
2019-03-12T00:55:51.972Z,21.17
2019-03-12T01:00:58.151Z,20.97
2019-03-12T01:06:04.256Z,19.83
2019-03-12T01:11:10.299Z,17.40
2019-03-12T01:16:16.490Z,19.30
2019-03-12T01:21:22.648Z,18.60
2019-03-12T01:26:28.666Z,15.93
2019-03-12T01:31:34.681Z,15.03
2019-03-12T01:36:40.950Z,18.17
2019-03-12T01:41:47.053Z,17.63
2019-03-12T01:46:53.150Z,16.93
2019-03-12T01:51:59.405Z,17.87
2019-03-12T01:57:05.605Z,16.07
2019-03-12T02:02:11.691Z,17.93
2019-03-12T02:07:17.754Z,17.23
2019-03-12T02:12:23.909Z,18.00
2019-03-12T02:17:30.007Z,18.57
2019-03-12T02:22:36.084Z,18.33
2019-03-12T02:27:42.228Z,17.77
2019-03-12T02:32:48.544Z,20.57
2019-03-12T02:37:54.622Z,24.63
2019-03-12T02:43:00.692Z,22.93
2019-03-12T02:48:06.840Z,22.47
2019-03-12T02:53:12.950Z,26.13
2019-03-12T02:58:19.006Z,25.07
2019-03-12T03:03:25.284Z,26.63
2019-03-12T03:08:33.309Z,24.63
2019-03-12T03:13:39.504Z,24.03
2019-03-12T03:18:45.665Z,24.23
2019-03-12T03:23:51.750Z,21.13
2019-03-12T03:28:57.840Z,21.30
2019-03-12T03:34:04.005Z,21.27
2019-03-12T03:39:10.253Z,24.07
2019-03-12T03:44:16.213Z,19.90
2019-03-12T03:49:22.359Z,19.73
2019-03-12T03:54:28.497Z,22.07
2019-03-12T03:59:34.685Z,20.27
2019-03-12T04:04:40.731Z,22.53
2019-03-12T04:09:46.874Z,20.17
2019-03-12T04:14:53.298Z,20.53
2019-03-12T04:19:59.379Z,18.70
2019-03-12T04:25:05.654Z,18.27
2019-03-12T04:30:12.555Z,21.47
2019-03-12T04:35:19.581Z,19.53
2019-03-12T04:40:25.720Z,24.17
2019-03-12T04:45:31.907Z,21.97
2019-03-12T04:50:37.984Z,21.97
2019-03-12T04:55:44.041Z,21.40
2019-03-12T05:00:50.174Z,18.93
2019-03-12T05:05:56.215Z,19.90
2019-03-12T05:11:02.412Z,21.37
2019-03-12T05:16:08.822Z,22.87
2019-03-12T05:21:14.947Z,21.53
2019-03-12T05:26:20.928Z,25.90
2019-03-12T05:31:27.098Z,24.67
2019-03-12T05:36:33.270Z,24.90
2019-03-12T05:41:39.416Z,23.40
2019-03-12T05:46:45.617Z,25.83
2019-03-12T05:51:51.796Z,26.90
2019-03-12T05:56:57.966Z,25.60
2019-03-12T06:02:04.177Z,28.17
2019-03-12T06:07:10.437Z,28.53
2019-03-12T06:12:16.559Z,26.90
2019-03-12T06:17:22.484Z,30.23
2019-03-12T06:22:28.674Z,31.40
2019-03-12T06:27:34.854Z,29.27
2019-03-12T06:33:02.647Z,28.00
2019-03-12T06:38:24.099Z,27.90
2019-03-12T06:43:54.852Z,28.30
2019-03-12T06:49:05.399Z,26.00
2019-03-12T06:54:33.124Z,25.27
2019-03-12T07:00:03.974Z,23.90
2019-03-12T07:05:47.218Z,23.67
2019-03-12T07:11:11.009Z,23.27
2019-03-12T07:16:37.155Z,18.37
2019-03-12T07:21:59.180Z,16.33
2019-03-12T07:27:27.086Z,21.10
2019-03-12T07:33:03.971Z,12.93
2019-03-12T07:38:21.328Z,15.43
2019-03-12T07:43:46.242Z,14.00
2019-03-12T07:49:17.169Z,14.93
2019-03-12T07:54:54.272Z,9.27
2019-03-12T08:00:10.151Z,11.63
2019-03-12T08:05:35.329Z,9.23
2019-03-12T08:11:03.524Z,10.40
2019-03-12T08:16:18.278Z,7.77
2019-03-12T08:21:46.087Z,8.10
2019-03-12T08:27:04.037Z,7.40
2019-03-12T08:32:44.011Z,9.20
2019-03-12T08:38:27.325Z,6.87
2019-03-12T08:43:42.903Z,6.50
2019-03-12T08:49:10.634Z,6.53
2019-03-12T08:54:28.286Z,7.47
2019-03-12T09:00:01.905Z,7.33
2019-03-12T09:05:33.239Z,7.80
2019-03-12T09:10:56.721Z,5.90
2019-03-12T09:16:08.858Z,6.90
2019-03-12T09:21:28.056Z,8.03
2019-03-12T09:26:54.988Z,8.00
2019-03-12T09:32:18.498Z,6.97
2019-03-12T09:37:37.038Z,5.30
2019-03-12T09:43:00.656Z,4.40
2019-03-12T09:48:28.712Z,5.33
2019-03-12T09:53:43.604Z,5.40
2019-03-12T09:59:11.684Z,5.20
2019-03-12T10:04:37.351Z,5.17
2019-03-12T10:10:05.420Z,4.53
2019-03-12T10:15:30.358Z,6.90
2019-03-12T10:21:01.606Z,4.30
2019-03-12T10:26:26.511Z,3.53
2019-03-12T10:31:47.989Z,3.00
2019-03-12T10:37:11.832Z,3.23
2019-03-12T10:42:29.278Z,2.60
2019-03-12T10:47:36.023Z,2.43
2019-03-12T10:52:42.127Z,4.33
2019-03-12T10:57:48.220Z,3.27
2019-03-12T11:02:54.305Z,2.30
2019-03-12T11:08:00.445Z,4.20
2019-03-12T11:13:06.534Z,4.20
2019-03-12T11:18:12.657Z,3.93
2019-03-12T11:23:18.872Z,1.97
2019-03-12T11:28:26.754Z,1.90
2019-03-12T11:33:32.646Z,2.83
2019-03-12T11:38:38.742Z,2.70
2019-03-12T11:43:44.770Z,2.33
2019-03-12T11:48:50.901Z,2.10
2019-03-12T11:53:56.873Z,4.47
2019-03-12T11:59:02.857Z,2.90
2019-03-12T12:04:09.018Z,2.40
2019-03-12T12:09:15.080Z,1.70
2019-03-12T12:14:21.352Z,3.13
2019-03-12T12:19:27.466Z,2.93
2019-03-12T12:24:33.409Z,2.00
2019-03-12T12:29:39.505Z,3.93
2019-03-12T12:34:45.679Z,3.23
2019-03-12T12:39:51.647Z,3.33
2019-03-12T12:44:57.745Z,4.23
2019-03-12T12:50:03.714Z,4.67
2019-03-12T12:55:10.820Z,3.90
2019-03-12T13:00:19.023Z,5.50
2019-03-12T13:05:25.279Z,4.20
2019-03-12T13:10:31.256Z,4.80
2019-03-12T13:15:37.438Z,3.37
2019-03-12T13:20:43.619Z,3.60
2019-03-12T13:25:49.677Z,3.37
2019-03-12T13:30:55.891Z,6.57
2019-03-12T13:36:01.942Z,5.97
2019-03-12T13:41:08.177Z,5.20
2019-03-12T13:46:14.229Z,3.93
2019-03-12T13:51:20.327Z,6.27
2019-03-12T13:56:26.660Z,3.97
2019-03-12T14:01:32.728Z,4.93
2019-03-12T14:06:38.957Z,3.80
2019-03-12T14:11:45.171Z,4.87
2019-03-12T14:16:51.344Z,2.97
2019-03-12T14:21:57.461Z,4.00
2019-03-12T14:27:03.474Z,3.17
2019-03-12T14:32:11.903Z,5.77
2019-03-12T14:37:17.277Z,5.17
2019-03-12T14:42:23.526Z,3.20
2019-03-12T14:47:29.577Z,3.87
2019-03-12T14:52:39.428Z,6.80
2019-03-12T14:57:47.463Z,5.20
2019-03-12T15:02:53.841Z,4.20
2019-03-12T15:08:00.095Z,3.20
2019-03-12T15:13:06.101Z,4.77
2019-03-12T15:18:12.056Z,4.47
2019-03-12T15:23:18.136Z,5.30
2019-03-12T15:28:24.273Z,16.30
2019-03-12T15:33:30.401Z,6.43
2019-03-12T15:38:37.592Z,5.37
2019-03-12T15:43:43.637Z,4.33
2019-03-12T15:48:49.839Z,7.03
2019-03-12T15:53:55.991Z,8.63
2019-03-12T15:59:02.249Z,12.87
2019-03-12T16:04:08.421Z,10.40
2019-03-12T16:09:14.713Z,15.23
2019-03-12T16:14:20.917Z,4.90
2019-03-12T16:19:27.015Z,15.57
2019-03-12T16:24:33.127Z,12.80
2019-03-12T16:29:39.363Z,8.77
2019-03-12T16:34:45.515Z,14.53
2019-03-12T16:39:51.740Z,12.90
2019-03-12T16:44:57.777Z,5.67
2019-03-12T16:50:03.760Z,10.80
2019-03-12T16:55:09.913Z,6.17
2019-03-12T17:00:16.406Z,21.07
2019-03-12T17:05:26.124Z,90.63
2019-03-12T17:10:31.333Z,43.93
2019-03-12T17:15:37.419Z,11.10
2019-03-12T17:20:43.785Z,6.27
2019-03-12T17:25:49.974Z,21.30
2019-03-12T17:30:55.937Z,40.50
2019-03-12T17:36:02.044Z,9.73
2019-03-12T17:41:08.080Z,12.83
2019-03-12T17:46:14.262Z,17.13
2019-03-12T17:51:20.382Z,18.10
2019-03-12T17:56:26.409Z,11.53
2019-03-12T18:01:32.692Z,10.30
2019-03-12T18:06:38.851Z,12.40
2019-03-12T18:11:44.917Z,17.20
2019-03-12T18:16:51.249Z,22.10
2019-03-12T18:21:57.670Z,11.03
2019-03-12T18:27:03.790Z,15.27
2019-03-12T18:32:09.839Z,69.83
2019-03-12T18:37:16.095Z,50.07
2019-03-12T18:42:22.280Z,6.83
2019-03-12T18:47:28.306Z,18.70
2019-03-12T18:52:34.422Z,9.07
2019-03-12T18:57:40.607Z,13.97
2019-03-12T19:02:46.648Z,9.70
2019-03-12T19:07:52.795Z,7.80
2019-03-12T19:12:58.675Z,7.37
2019-03-12T19:18:04.939Z,6.23
2019-03-12T19:23:11.148Z,4.17
2019-03-12T19:28:17.198Z,9.77
2019-03-12T19:33:24.086Z,5.40
2019-03-12T19:38:30.154Z,4.50
2019-03-12T19:43:36.265Z,3.50
2019-03-12T19:48:42.409Z,5.30
2019-03-12T19:53:48.356Z,5.80
2019-03-12T19:58:54.596Z,4.20
2019-03-12T20:04:03.167Z,5.17
2019-03-12T20:09:11.549Z,4.90
2019-03-12T20:15:20.301Z,7.40
2019-03-12T20:21:01.909Z,6.77
2019-03-12T20:26:44.437Z,4.53
2019-03-12T20:32:19.443Z,5.97
2019-03-12T20:38:01.302Z,8.30
2019-03-12T20:43:46.756Z,4.97
2019-03-12T20:49:30.245Z,4.60
2019-03-12T20:55:34.800Z,7.40
2019-03-12T21:01:12.013Z,5.57
2019-03-12T21:07:02.522Z,6.13
2019-03-12T21:12:45.535Z,4.97
2019-03-12T21:18:39.981Z,5.50
2019-03-12T21:24:01.100Z,5.73
2019-03-12T21:29:49.431Z,4.90
2019-03-12T21:34:55.605Z,4.87
2019-03-12T21:40:01.764Z,8.97
2019-03-12T21:45:10.173Z,4.97
2019-03-12T21:50:16.249Z,6.77
2019-03-12T21:55:22.346Z,6.97
2019-03-12T22:00:28.319Z,4.60
2019-03-12T22:05:34.499Z,5.83
2019-03-12T22:10:40.644Z,7.30
2019-03-12T22:15:46.760Z,4.03
2019-03-12T22:20:52.821Z,5.97
2019-03-12T22:25:59.006Z,5.87
2019-03-12T22:31:06.411Z,4.07
2019-03-12T22:36:12.477Z,5.50
2019-03-12T22:41:18.549Z,7.67
2019-03-12T22:46:24.629Z,7.37
2019-03-12T22:51:30.742Z,7.77
2019-03-12T22:56:36.865Z,5.90
2019-03-12T23:01:44.582Z,7.07
2019-03-12T23:07:08.695Z,4.07
2019-03-12T23:12:19.890Z,5.67
2019-03-12T23:17:27.085Z,4.83
2019-03-12T23:22:33.147Z,4.77
2019-03-12T23:27:39.239Z,4.97
2019-03-12T23:32:45.309Z,5.30
2019-03-12T23:37:51.399Z,5.27
2019-03-12T23:42:57.578Z,4.40
2019-03-12T23:48:03.717Z,5.30
2019-03-12T23:53:09.816Z,3.33
2019-03-12T23:58:15.996Z,3.47
